Portada
METAR-TAF:

METAR-TAF

Aeroports :

Block Island, Rhode Island, Estats Units d'Amèrica

latitud: 41-10N, longitud: 071-34W, altitud: 33 m

Observació

L'informe es va fer fa 37 minuts, a les 21:56 UTC
Vent 13 kt del Est/Nord-Est amb ràfegues de 17 kt
Temperatura 13°C
Humitat 82%
Pressió 1025 hPa
Visibilitat: 16.1 km
Cel cobert a una alçada de 2600 ft

METAR: KBID 242156Z AUTO 07013G17KT 10SM OVC026 13/10 A3026 RMK AO2 SLP248 T01280100

Hora: 18:33 (22:33 UTC)


TAF: manca

Observacions i pronòstics meteorològics de més de 4000 aeroports (METAR i TAF).

Les estacions disponibles són els punts grocs i vermells al mapa.

Posi el ratolí al punt desitjat per veure el nom de l'estació.

Feu clic per veure les observacions i els pronòstics meteorològics.

Per canviar el mapa: feu clic els botons verds amb una creu de color negre per apropar; al botó verd amb un guió per allunyar la imatge; o en les fletxes verdes per a mapes adjacents.


METAR-TAF: